createdAt,value
2018-12-08T00:00:32.344Z,1013.44
2018-12-08T00:01:32.428Z,1013.44
2018-12-08T00:02:31.951Z,1013.46
2018-12-08T00:03:32.007Z,1013.5
2018-12-08T00:04:32.810Z,1013.49
2018-12-08T00:05:32.872Z,1013.53
2018-12-08T00:06:32.249Z,1013.56
2018-12-08T00:07:32.449Z,1013.57
2018-12-08T00:08:32.195Z,1013.53
2018-12-08T00:09:32.189Z,1013.52
2018-12-08T00:10:32.192Z,1013.54
2018-12-08T00:11:32.082Z,1013.55
2018-12-08T00:12:31.934Z,1013.58
2018-12-08T00:13:32.314Z,1013.59
2018-12-08T00:14:32.834Z,1013.59
2018-12-08T00:15:32.398Z,1013.62
2018-12-08T00:16:32.056Z,1013.71
2018-12-08T00:17:32.256Z,1013.69
2018-12-08T00:18:32.049Z,1013.72
2018-12-08T00:19:32.157Z,1013.63
2018-12-08T00:20:32.099Z,1013.7
2018-12-08T00:21:31.957Z,1013.63
2018-12-08T00:22:32.184Z,1013.66
2018-12-08T00:23:32.009Z,1013.69
2018-12-08T00:24:32.229Z,1013.67
2018-12-08T00:25:32.380Z,1013.68
2018-12-08T00:26:32.110Z,1013.73
2018-12-08T00:27:32.006Z,1013.72
2018-12-08T00:28:32.142Z,1013.7
2018-12-08T00:29:32.081Z,1013.75
2018-12-08T00:30:31.953Z,1013.71
2018-12-08T00:31:32.242Z,1013.76
2018-12-08T00:32:32.143Z,1013.69
2018-12-08T00:33:32.094Z,1013.72
2018-12-08T00:34:32.250Z,1013.69
2018-12-08T00:35:32.159Z,1013.7
2018-12-08T00:36:32.018Z,1013.7
2018-12-08T00:37:32.217Z,1013.8
2018-12-08T00:38:32.185Z,1013.79
2018-12-08T00:39:32.476Z,1013.81
2018-12-08T00:40:32.267Z,1013.76
2018-12-08T00:41:32.351Z,1013.8
2018-12-08T00:42:32.293Z,1013.73
2018-12-08T00:43:31.981Z,1013.83
2018-12-08T00:44:32.204Z,1013.84
2018-12-08T00:45:32.207Z,1013.94
2018-12-08T00:46:32.089Z,1013.98
2018-12-08T00:47:32.510Z,1014.01
2018-12-08T00:48:31.930Z,1014.08
2018-12-08T00:49:32.203Z,1014.05
2018-12-08T00:50:32.106Z,1014.13
2018-12-08T00:51:32.465Z,1014.12
2018-12-08T00:52:32.519Z,1014.15
2018-12-08T00:53:32.395Z,1014.15
2018-12-08T00:54:32.428Z,1014.12
2018-12-08T00:55:32.410Z,1014.11
2018-12-08T00:56:32.133Z,1014.13
2018-12-08T00:57:31.935Z,1014.09
2018-12-08T00:58:32.352Z,1014.19
2018-12-08T00:59:32.346Z,1014.24
2018-12-08T01:00:32.044Z,1014.2
2018-12-08T01:01:32.373Z,1014.28
2018-12-08T01:02:31.985Z,1014.22
2018-12-08T01:03:32.166Z,1014.25
2018-12-08T01:04:31.910Z,1014.27
2018-12-08T01:05:32.297Z,1014.23
2018-12-08T01:06:32.074Z,1014.23
2018-12-08T01:07:32.091Z,1014.25
2018-12-08T01:08:32.984Z,1014.27
2018-12-08T01:09:32.739Z,1014.26
2018-12-08T01:10:32.530Z,1014.33
2018-12-08T01:11:32.375Z,1014.3
2018-12-08T01:12:32.414Z,1014.27
2018-12-08T01:13:32.399Z,1014.27
2018-12-08T01:14:32.132Z,1014.26
2018-12-08T01:15:32.144Z,1014.24
2018-12-08T01:16:32.379Z,1014.18
2018-12-08T01:17:32.405Z,1014.16
2018-12-08T01:18:32.320Z,1014.11
2018-12-08T01:19:32.241Z,1014.13
2018-12-08T01:20:32.419Z,1014.15
2018-12-08T01:21:32.185Z,1014.16
2018-12-08T01:22:32.184Z,1014.13
2018-12-08T01:23:32.185Z,1014.09
2018-12-08T01:24:32.850Z,1014.15
2018-12-08T01:25:32.644Z,1014.12
2018-12-08T01:26:32.054Z,1014.16
2018-12-08T01:27:31.938Z,1014.15
2018-12-08T01:28:32.469Z,1014.11
2018-12-08T01:29:32.767Z,1014.08
2018-12-08T01:30:32.030Z,1014.11
2018-12-08T01:31:32.138Z,1014.1
2018-12-08T01:32:32.285Z,1014.13
2018-12-08T01:33:31.914Z,1014.14
2018-12-08T01:34:32.220Z,1014.16
2018-12-08T01:35:32.312Z,1014.2
2018-12-08T01:36:32.419Z,1014.14
2018-12-08T01:37:32.191Z,1014.2
2018-12-08T01:38:32.249Z,1014.17
2018-12-08T01:39:32.201Z,1014.18
2018-12-08T01:40:32.425Z,1014.22
2018-12-08T01:41:31.927Z,1014.2
2018-12-08T01:42:32.065Z,1014.24
2018-12-08T01:43:32.303Z,1014.18
2018-12-08T01:44:32.137Z,1014.26
2018-12-08T01:45:32.221Z,1014.29
2018-12-08T01:46:32.066Z,1014.26
2018-12-08T01:47:32.078Z,1014.25
2018-12-08T01:48:31.949Z,1014.35
2018-12-08T01:49:32.404Z,1014.26
2018-12-08T01:50:32.176Z,1014.34
2018-12-08T01:51:32.487Z,1014.38
2018-12-08T01:52:32.179Z,1014.39
2018-12-08T01:53:31.929Z,1014.39
2018-12-08T01:54:32.343Z,1014.4
2018-12-08T01:55:32.311Z,1014.39
2018-12-08T01:56:32.090Z,1014.45
2018-12-08T01:57:32.253Z,1014.37
2018-12-08T01:58:32.340Z,1014.34
2018-12-08T01:59:32.210Z,1014.39
2018-12-08T02:00:31.978Z,1014.35
2018-12-08T02:01:32.039Z,1014.4
2018-12-08T02:02:31.910Z,1014.38
2018-12-08T02:03:32.038Z,1014.4
2018-12-08T02:04:32.257Z,1014.37
2018-12-08T02:05:31.967Z,1014.34
2018-12-08T02:06:32.180Z,1014.38
2018-12-08T02:07:32.008Z,1014.31
2018-12-08T02:08:32.071Z,1014.32
2018-12-08T02:09:31.930Z,1014.31
2018-12-08T02:10:32.277Z,1014.3
2018-12-08T02:11:32.143Z,1014.24
2018-12-08T02:12:32.347Z,1014.23
2018-12-08T02:13:32.164Z,1014.31
2018-12-08T02:14:32.116Z,1014.29
2018-12-08T02:15:32.147Z,1014.37
2018-12-08T02:16:31.973Z,1014.4
2018-12-08T02:17:32.644Z,1014.41
2018-12-08T02:18:31.910Z,1014.4
2018-12-08T02:19:32.512Z,1014.35
2018-12-08T02:20:32.186Z,1014.33
2018-12-08T02:21:32.197Z,1014.36
2018-12-08T02:22:32.421Z,1014.32
2018-12-08T02:23:31.941Z,1014.32
2018-12-08T02:24:32.411Z,1014.35
2018-12-08T02:25:32.226Z,1014.26
2018-12-08T02:26:31.966Z,1014.27
2018-12-08T02:27:32.135Z,1014.29
2018-12-08T02:28:32.130Z,1014.31
2018-12-08T02:29:32.631Z,1014.31
2018-12-08T02:30:32.656Z,1014.23
2018-12-08T02:31:32.090Z,1014.24
2018-12-08T02:32:32.514Z,1014.23
2018-12-08T02:33:31.974Z,1014.37
2018-12-08T02:34:32.139Z,1014.35
2018-12-08T02:35:32.012Z,1014.34
2018-12-08T02:36:32.859Z,1014.39
2018-12-08T02:37:31.950Z,1014.37
2018-12-08T02:38:32.053Z,1014.35
2018-12-08T02:39:32.333Z,1014.39
2018-12-08T02:40:32.451Z,1014.37
2018-12-08T02:41:32.251Z,1014.36
2018-12-08T02:42:32.433Z,1014.37
2018-12-08T02:43:32.116Z,1014.41
2018-12-08T02:44:31.997Z,1014.4
2018-12-08T02:45:31.926Z,1014.46
2018-12-08T02:46:33.129Z,1014.41
2018-12-08T02:47:32.410Z,1014.37
2018-12-08T02:48:32.424Z,1014.5
2018-12-08T02:49:32.213Z,1014.43
2018-12-08T02:50:32.110Z,1014.45
2018-12-08T02:51:31.948Z,1014.51
2018-12-08T02:52:32.246Z,1014.49
2018-12-08T02:53:32.758Z,1014.47
2018-12-08T02:54:32.021Z,1014.52
2018-12-08T02:55:32.340Z,1014.61
2018-12-08T02:56:32.226Z,1014.58
2018-12-08T02:57:32.390Z,1014.62
2018-12-08T02:58:32.068Z,1014.62
2018-12-08T02:59:32.125Z,1014.67
2018-12-08T03:00:32.374Z,1014.69
2018-12-08T03:01:32.124Z,1014.68
2018-12-08T03:02:32.166Z,1014.68
2018-12-08T03:03:31.916Z,1014.72
2018-12-08T03:04:32.420Z,1014.7
2018-12-08T03:05:32.777Z,1014.75
2018-12-08T03:06:32.191Z,1014.76
2018-12-08T03:07:32.225Z,1014.78
2018-12-08T03:08:32.097Z,1014.78
2018-12-08T03:09:32.002Z,1014.78
2018-12-08T03:10:31.955Z,1014.74
2018-12-08T03:11:32.076Z,1014.77
2018-12-08T03:12:32.066Z,1014.76
2018-12-08T03:13:32.322Z,1014.7
2018-12-08T03:14:32.029Z,1014.73
2018-12-08T03:15:32.033Z,1014.71
2018-12-08T03:16:31.958Z,1014.76
2018-12-08T03:17:32.589Z,1014.84
2018-12-08T03:18:32.106Z,1014.8
2018-12-08T03:19:32.259Z,1014.73
2018-12-08T03:20:32.922Z,1014.74
2018-12-08T03:21:32.320Z,1014.77
2018-12-08T03:22:32.042Z,1014.72
2018-12-08T03:23:31.992Z,1014.74
2018-12-08T03:24:32.155Z,1014.7
2018-12-08T03:25:31.924Z,1014.65
2018-12-08T03:26:32.163Z,1014.72
2018-12-08T03:27:32.355Z,1014.76
2018-12-08T03:28:31.973Z,1014.76
2018-12-08T03:29:32.052Z,1014.79
2018-12-08T03:30:32.053Z,1014.75
2018-12-08T03:31:32.670Z,1014.77
2018-12-08T03:32:32.125Z,1014.69
2018-12-08T03:33:31.950Z,1014.67
2018-12-08T03:34:32.438Z,1014.63
2018-12-08T03:35:32.081Z,1014.54
2018-12-08T03:36:32.172Z,1014.65
2018-12-08T03:37:31.940Z,1014.67
2018-12-08T03:38:32.130Z,1014.67
2018-12-08T03:39:31.946Z,1014.69
2018-12-08T03:40:32.151Z,1014.71
2018-12-08T03:41:32.211Z,1014.67
2018-12-08T03:42:32.121Z,1014.62
2018-12-08T03:43:32.098Z,1014.6
2018-12-08T03:44:31.936Z,1014.57
2018-12-08T03:45:32.074Z,1014.57
2018-12-08T03:46:31.885Z,1014.6
2018-12-08T03:47:32.131Z,1014.58
2018-12-08T03:48:31.891Z,1014.64
2018-12-08T03:49:32.100Z,1014.59
2018-12-08T03:50:32.353Z,1014.64
2018-12-08T03:51:31.935Z,1014.65
2018-12-08T03:52:32.264Z,1014.61
2018-12-08T03:53:32.017Z,1014.65
2018-12-08T03:54:32.055Z,1014.63
2018-12-08T03:55:32.086Z,1014.65
2018-12-08T03:56:32.107Z,1014.6
2018-12-08T03:57:31.860Z,1014.69
2018-12-08T03:58:32.027Z,1014.59
2018-12-08T03:59:32.344Z,1014.63
2018-12-08T04:00:32.193Z,1014.63
2018-12-08T04:01:32.359Z,1014.75
2018-12-08T04:02:32.253Z,1014.71
2018-12-08T04:03:32.017Z,1014.6
2018-12-08T04:04:32.183Z,1014.64
2018-12-08T04:05:31.902Z,1014.68
2018-12-08T04:06:32.173Z,1014.67
2018-12-08T04:07:31.999Z,1014.71
2018-12-08T04:08:31.959Z,1014.73
2018-12-08T04:09:32.348Z,1014.79
2018-12-08T04:10:32.263Z,1014.71
2018-12-08T04:11:32.109Z,1014.71
2018-12-08T04:12:31.879Z,1014.73
2018-12-08T04:13:32.150Z,1014.71
2018-12-08T04:14:32.283Z,1014.75
2018-12-08T04:15:32.053Z,1014.72
2018-12-08T04:16:32.757Z,1014.76
2018-12-08T04:17:32.024Z,1014.75
2018-12-08T04:18:32.205Z,1014.74
2018-12-08T04:19:31.829Z,1014.75
2018-12-08T04:20:32.049Z,1014.76
2018-12-08T04:21:31.898Z,1014.82
2018-12-08T04:22:32.078Z,1014.84
2018-12-08T04:23:32.137Z,1014.8
2018-12-08T04:24:32.632Z,1014.8
2018-12-08T04:25:32.245Z,1014.76
2018-12-08T04:26:31.918Z,1014.8
2018-12-08T04:27:32.327Z,1014.77
2018-12-08T04:28:32.328Z,1014.78
2018-12-08T04:29:32.068Z,1014.76
2018-12-08T04:30:32.506Z,1014.78
2018-12-08T04:31:32.010Z,1014.75
2018-12-08T04:32:32.183Z,1014.74
2018-12-08T04:33:31.858Z,1014.71
2018-12-08T04:34:32.877Z,1014.72
2018-12-08T04:35:32.195Z,1014.72
2018-12-08T04:36:32.034Z,1014.69
2018-12-08T04:37:31.844Z,1014.72
2018-12-08T04:38:32.054Z,1014.75
2018-12-08T04:39:32.253Z,1014.68
2018-12-08T04:40:32.046Z,1014.65
2018-12-08T04:41:32.113Z,1014.66
2018-12-08T04:42:32.737Z,1014.65
2018-12-08T04:43:32.167Z,1014.63
2018-12-08T04:44:32.327Z,1014.6
2018-12-08T04:45:32.110Z,1014.57
2018-12-08T04:46:31.944Z,1014.65
2018-12-08T04:47:32.030Z,1014.59
2018-12-08T04:48:32.126Z,1014.61
2018-12-08T04:49:31.969Z,1014.61
2018-12-08T04:50:32.130Z,1014.63
2018-12-08T04:51:31.845Z,1014.57
2018-12-08T04:52:32.236Z,1014.62
2018-12-08T04:53:32.086Z,1014.66
2018-12-08T04:54:31.960Z,1014.64
2018-12-08T04:55:32.124Z,1014.61
2018-12-08T04:56:31.957Z,1014.64
2018-12-08T04:57:32.788Z,1014.59
2018-12-08T04:58:31.986Z,1014.57
2018-12-08T04:59:32.112Z,1014.65
2018-12-08T05:00:31.833Z,1014.68
2018-12-08T05:01:32.512Z,1014.68
2018-12-08T05:02:32.216Z,1014.68
2018-12-08T05:03:32.219Z,1014.68
2018-12-08T05:04:32.016Z,1014.71
2018-12-08T05:05:32.350Z,1014.72
2018-12-08T05:06:32.239Z,1014.76
2018-12-08T05:07:31.966Z,1014.86
2018-12-08T05:08:32.114Z,1014.81
2018-12-08T05:09:32.262Z,1014.79
2018-12-08T05:10:31.991Z,1014.86
2018-12-08T05:11:32.235Z,1014.82
2018-12-08T05:12:32.308Z,1014.89
2018-12-08T05:13:32.098Z,1014.91
2018-12-08T05:14:31.990Z,1014.96
2018-12-08T05:15:32.373Z,1014.96
2018-12-08T05:16:32.234Z,1014.94
2018-12-08T05:17:31.966Z,1014.88
2018-12-08T05:18:32.724Z,1014.93
2018-12-08T05:19:32.037Z,1014.98
2018-12-08T05:20:32.377Z,1015.02
2018-12-08T05:21:31.934Z,1014.95
2018-12-08T05:22:32.172Z,1014.94
2018-12-08T05:23:31.872Z,1014.89
2018-12-08T05:24:32.102Z,1014.94
2018-12-08T05:25:31.951Z,1014.98
2018-12-08T05:26:31.958Z,1014.93
2018-12-08T05:27:31.906Z,1014.88
2018-12-08T05:28:31.988Z,1014.93
2018-12-08T05:29:32.165Z,1014.91
2018-12-08T05:30:31.967Z,1014.94
2018-12-08T05:31:32.092Z,1014.93
2018-12-08T05:32:31.968Z,1014.92
2018-12-08T05:33:31.921Z,1014.92
2018-12-08T05:34:32.126Z,1014.95
2018-12-08T05:35:32.015Z,1014.96
2018-12-08T05:36:31.825Z,1014.96
2018-12-08T05:37:32.288Z,1014.9
2018-12-08T05:38:32.500Z,1014.94
2018-12-08T05:39:32.101Z,1014.98
2018-12-08T05:40:31.856Z,1014.93
2018-12-08T05:41:32.158Z,1014.87
2018-12-08T05:42:32.120Z,1014.96
2018-12-08T05:43:32.091Z,1014.86
2018-12-08T05:44:31.961Z,1014.91
2018-12-08T05:45:32.313Z,1014.86
2018-12-08T05:46:32.048Z,1014.94
2018-12-08T05:47:32.262Z,1015.01
2018-12-08T05:48:32.110Z,1015.01
2018-12-08T05:49:32.475Z,1015.1
2018-12-08T05:50:32.375Z,1015.05
2018-12-08T05:51:31.996Z,1015.1
2018-12-08T05:52:32.038Z,1015.06
2018-12-08T05:53:31.909Z,1015
2018-12-08T05:54:32.272Z,1015
2018-12-08T05:55:31.733Z,1015.04
2018-12-08T05:56:31.965Z,1015
2018-12-08T05:57:32.061Z,1015.03
2018-12-08T05:58:31.911Z,1014.99
2018-12-08T05:59:32.102Z,1014.93
2018-12-08T06:00:32.014Z,1014.92
2018-12-08T06:01:32.198Z,1014.91
2018-12-08T06:02:32.167Z,1014.96
2018-12-08T06:03:32.041Z,1014.98
2018-12-08T06:04:32.174Z,1014.92
2018-12-08T06:05:31.881Z,1014.97
2018-12-08T06:06:31.994Z,1014.97
2018-12-08T06:07:31.854Z,1014.92
2018-12-08T06:08:31.957Z,1014.87
2018-12-08T06:09:32.171Z,1014.86
2018-12-08T06:10:31.961Z,1014.87
2018-12-08T06:11:32.172Z,1014.87
2018-12-08T06:12:32.189Z,1014.89
2018-12-08T06:13:32.041Z,1014.85
2018-12-08T06:14:32.236Z,1014.84
2018-12-08T06:15:31.969Z,1014.85
2018-12-08T06:16:31.823Z,1014.82
2018-12-08T06:17:31.962Z,1014.83
2018-12-08T06:18:32.467Z,1014.81
2018-12-08T06:19:32.184Z,1014.83
2018-12-08T06:20:32.453Z,1014.82
2018-12-08T06:21:31.941Z,1014.78
2018-12-08T06:22:32.230Z,1014.83
2018-12-08T06:23:32.094Z,1014.81
2018-12-08T06:24:32.676Z,1014.87
2018-12-08T06:25:32.037Z,1014.84
2018-12-08T06:26:31.896Z,1014.82
2018-12-08T06:27:32.041Z,1014.8
2018-12-08T06:28:32.298Z,1014.73
2018-12-08T06:29:31.956Z,1014.7
2018-12-08T06:30:32.127Z,1014.73
2018-12-08T06:31:31.997Z,1014.75
2018-12-08T06:32:32.238Z,1014.75
2018-12-08T06:33:31.886Z,1014.71
2018-12-08T06:34:32.453Z,1014.75
2018-12-08T06:35:32.030Z,1014.77
2018-12-08T06:36:31.978Z,1014.8
2018-12-08T06:37:32.119Z,1014.77
2018-12-08T06:38:32.236Z,1014.73
2018-12-08T06:39:32.699Z,1014.68
2018-12-08T06:40:32.349Z,1014.76
2018-12-08T06:41:32.234Z,1014.67
2018-12-08T06:42:32.037Z,1014.7
2018-12-08T06:43:32.051Z,1014.73
2018-12-08T06:44:32.051Z,1014.64
2018-12-08T06:45:32.237Z,1014.59
2018-12-08T06:46:32.444Z,1014.51
2018-12-08T06:47:32.839Z,1014.53
2018-12-08T06:48:32.059Z,1014.49
2018-12-08T06:49:32.220Z,1014.45
2018-12-08T06:50:31.924Z,1014.46
2018-12-08T06:51:31.953Z,1014.37
2018-12-08T06:52:32.058Z,1014.41
2018-12-08T06:53:31.995Z,1014.47
2018-12-08T06:54:31.962Z,1014.54
2018-12-08T06:55:31.952Z,1014.55
2018-12-08T06:56:32.470Z,1014.63
2018-12-08T06:57:31.817Z,1014.65
2018-12-08T06:58:31.971Z,1014.63
2018-12-08T06:59:31.787Z,1014.74
2018-12-08T07:00:31.914Z,1014.61
2018-12-08T07:01:32.110Z,1014.49
2018-12-08T07:02:31.824Z,1014.44
2018-12-08T07:03:32.039Z,1014.53
2018-12-08T07:04:31.856Z,1014.57
2018-12-08T07:05:31.948Z,1014.52
2018-12-08T07:06:33.515Z,1014.53
2018-12-08T07:07:32.018Z,1014.5
2018-12-08T07:08:31.993Z,1014.52
2018-12-08T07:09:31.822Z,1014.53
2018-12-08T07:10:32.078Z,1014.54
2018-12-08T07:11:31.948Z,1014.53
2018-12-08T07:12:31.938Z,1014.55
2018-12-08T07:13:32.108Z,1014.55
2018-12-08T07:14:31.952Z,1014.49
2018-12-08T07:15:31.883Z,1014.48
2018-12-08T07:16:31.893Z,1014.4
2018-12-08T07:17:32.296Z,1014.45
2018-12-08T07:18:31.893Z,1014.37
2018-12-08T07:19:31.966Z,1014.49
2018-12-08T07:20:32.160Z,1014.44
2018-12-08T07:21:32.046Z,1014.45
2018-12-08T07:22:31.786Z,1014.41
2018-12-08T07:23:32.350Z,1014.4
2018-12-08T07:24:31.848Z,1014.38
2018-12-08T07:25:31.955Z,1014.34
2018-12-08T07:26:32.173Z,1014.36
2018-12-08T07:27:31.766Z,1014.42
2018-12-08T07:28:32.174Z,1014.42
2018-12-08T07:29:31.992Z,1014.45
2018-12-08T07:30:31.854Z,1014.41
2018-12-08T07:31:32.936Z,1014.35
2018-12-08T07:32:39.221Z,1014.44
2018-12-08T07:33:31.828Z,1014.37
2018-12-08T07:34:32.260Z,1014.35
2018-12-08T07:35:32.128Z,1014.37
2018-12-08T07:36:32.125Z,1014.37
2018-12-08T07:37:32.122Z,1014.43
2018-12-08T07:38:31.931Z,1014.43
2018-12-08T07:39:32.149Z,1014.51
2018-12-08T07:40:31.994Z,1014.53
2018-12-08T07:41:32.066Z,1014.53
2018-12-08T07:42:32.379Z,1014.51
2018-12-08T07:43:31.893Z,1014.56
2018-12-08T07:44:32.247Z,1014.42
2018-12-08T07:45:32.372Z,1014.46
2018-12-08T07:46:32.214Z,1014.39
2018-12-08T07:47:31.898Z,1014.3
2018-12-08T07:48:32.027Z,1014.35
2018-12-08T07:49:31.884Z,1014.36
2018-12-08T07:50:31.923Z,1014.33
2018-12-08T07:51:31.763Z,1014.31
2018-12-08T07:52:32.037Z,1014.31
2018-12-08T07:53:32.037Z,1014.38
2018-12-08T07:54:32.220Z,1014.36
2018-12-08T07:55:32.367Z,1014.33
2018-12-08T07:56:32.159Z,1014.36
2018-12-08T07:57:31.899Z,1014.27
2018-12-08T07:58:31.789Z,1014.31
2018-12-08T07:59:31.965Z,1014.34
2018-12-08T08:00:33.166Z,1014.37
2018-12-08T08:01:32.181Z,1014.35
2018-12-08T08:02:32.554Z,1014.37
2018-12-08T08:03:32.133Z,1014.26
2018-12-08T08:04:31.964Z,1014.33
2018-12-08T08:05:32.235Z,1014.37
2018-12-08T08:06:32.044Z,1014.3
2018-12-08T08:07:31.963Z,1014.28
2018-12-08T08:08:32.159Z,1014.32
2018-12-08T08:09:32.053Z,1014.31
2018-12-08T08:10:31.995Z,1014.16
2018-12-08T08:11:31.982Z,1014.18
2018-12-08T08:12:31.884Z,1014.27
2018-12-08T08:13:31.952Z,1014.26
2018-12-08T08:14:31.920Z,1014.25
2018-12-08T08:15:32.293Z,1014.22
2018-12-08T08:16:32.130Z,1014.22
2018-12-08T08:17:31.958Z,1014.19
2018-12-08T08:18:32.017Z,1014.24
2018-12-08T08:19:32.153Z,1014.15
2018-12-08T08:20:32.136Z,1014.18
2018-12-08T08:21:31.835Z,1014.16
2018-12-08T08:22:32.009Z,1014.14
2018-12-08T08:23:31.877Z,1014.13
2018-12-08T08:24:32.226Z,1014.11
2018-12-08T08:25:33.144Z,1014.17
2018-12-08T08:26:32.379Z,1014.15
2018-12-08T08:27:32.158Z,1014.12
2018-12-08T08:28:31.967Z,1014.01
2018-12-08T08:29:32.089Z,1013.97
2018-12-08T08:30:31.799Z,1013.94
2018-12-08T08:31:32.887Z,1013.95
2018-12-08T08:32:31.849Z,1013.94
2018-12-08T08:33:31.852Z,1014.02
2018-12-08T08:34:31.941Z,1014.04
2018-12-08T08:35:32.201Z,1014.06
2018-12-08T08:36:32.253Z,1013.97
2018-12-08T08:37:31.874Z,1013.97
2018-12-08T08:38:31.964Z,1013.88
2018-12-08T08:39:31.871Z,1013.88
2018-12-08T08:40:32.024Z,1013.92
2018-12-08T08:41:31.821Z,1013.97
2018-12-08T08:42:31.963Z,1013.97
2018-12-08T08:43:31.834Z,1013.86
2018-12-08T08:44:31.843Z,1013.83
2018-12-08T08:45:31.977Z,1013.88
2018-12-08T08:46:31.974Z,1013.86
2018-12-08T08:47:32.498Z,1013.77
2018-12-08T08:48:31.791Z,1013.77
2018-12-08T08:49:32.026Z,1013.75
2018-12-08T08:50:31.895Z,1013.7
2018-12-08T08:51:31.920Z,1013.69
2018-12-08T08:52:31.904Z,1013.65
2018-12-08T08:53:31.893Z,1013.73
2018-12-08T08:54:32.045Z,1013.7
2018-12-08T08:55:32.136Z,1013.79
2018-12-08T08:56:31.989Z,1013.67
2018-12-08T08:57:31.807Z,1013.69
2018-12-08T08:58:32.304Z,1013.66
2018-12-08T08:59:32.429Z,1013.7
2018-12-08T09:00:32.161Z,1013.7
2018-12-08T09:01:31.846Z,1013.74
2018-12-08T09:02:32.127Z,1013.77
2018-12-08T09:03:32.145Z,1013.7
2018-12-08T09:04:31.818Z,1013.7
2018-12-08T09:05:32.204Z,1013.77
2018-12-08T09:06:32.148Z,1013.68
2018-12-08T09:07:32.023Z,1013.73
2018-12-08T09:08:31.964Z,1013.72
2018-12-08T09:09:31.792Z,1013.72
2018-12-08T09:10:32.019Z,1013.75
2018-12-08T09:11:31.750Z,1013.73
2018-12-08T09:12:32.202Z,1013.74
2018-12-08T09:13:31.877Z,1013.75
2018-12-08T09:14:31.935Z,1013.71
2018-12-08T09:15:31.943Z,1013.74
2018-12-08T09:16:32.290Z,1013.63
2018-12-08T09:17:32.240Z,1013.63
2018-12-08T09:18:31.895Z,1013.64
2018-12-08T09:19:31.747Z,1013.65
2018-12-08T09:20:31.802Z,1013.61
2018-12-08T09:21:31.954Z,1013.63
2018-12-08T09:22:31.961Z,1013.52
2018-12-08T09:23:32.004Z,1013.52
2018-12-08T09:24:32.198Z,1013.58
2018-12-08T09:25:31.901Z,1013.48
2018-12-08T09:26:31.908Z,1013.52
2018-12-08T09:27:31.778Z,1013.6
2018-12-08T09:28:32.128Z,1013.62
2018-12-08T09:29:32.536Z,1013.59
2018-12-08T09:30:32.130Z,1013.61
2018-12-08T09:31:32.018Z,1013.62
2018-12-08T09:32:31.974Z,1013.61
2018-12-08T09:33:32.158Z,1013.6
2018-12-08T09:34:32.135Z,1013.8
2018-12-08T09:35:31.892Z,1013.69
2018-12-08T09:36:32.168Z,1013.77
2018-12-08T09:37:31.813Z,1013.74
2018-12-08T09:38:32.307Z,1013.67
2018-12-08T09:39:32.339Z,1013.69
2018-12-08T09:40:31.921Z,1013.7
2018-12-08T09:41:31.951Z,1013.7
2018-12-08T09:42:32.012Z,1013.76
2018-12-08T09:43:31.847Z,1013.72
2018-12-08T09:44:31.820Z,1013.79
2018-12-08T09:45:32.149Z,1013.74
2018-12-08T09:46:31.897Z,1013.72
2018-12-08T09:47:32.168Z,1013.74
2018-12-08T09:48:32.174Z,1013.75
2018-12-08T09:49:31.955Z,1013.72
2018-12-08T09:50:32.151Z,1013.73
2018-12-08T09:51:32.159Z,1013.79
2018-12-08T09:52:32.115Z,1013.78
2018-12-08T09:53:32.941Z,1013.82
2018-12-08T09:54:31.887Z,1013.71
2018-12-08T09:55:31.841Z,1013.68
2018-12-08T09:56:31.874Z,1013.71
2018-12-08T09:57:32.404Z,1013.74
2018-12-08T09:58:32.034Z,1013.7
2018-12-08T09:59:32.316Z,1013.78
2018-12-08T10:00:32.029Z,1013.72
2018-12-08T10:01:32.147Z,1013.77
2018-12-08T10:02:31.814Z,1013.93
2018-12-08T10:03:31.957Z,1013.79
2018-12-08T10:04:31.616Z,1013.78
2018-12-08T10:05:31.756Z,1013.77
2018-12-08T10:06:32.096Z,1013.8
2018-12-08T10:07:32.976Z,1013.74
2018-12-08T10:08:31.966Z,1013.72
2018-12-08T10:09:32.104Z,1013.77
2018-12-08T10:10:31.903Z,1013.77
2018-12-08T10:11:32.041Z,1013.81
2018-12-08T10:12:32.084Z,1013.68
2018-12-08T10:13:32.329Z,1013.66
2018-12-08T10:14:31.886Z,1013.62
2018-12-08T10:15:31.733Z,1013.6
2018-12-08T10:16:31.968Z,1013.58
2018-12-08T10:17:31.911Z,1013.62
2018-12-08T10:18:31.770Z,1013.54
2018-12-08T10:19:32.013Z,1013.59
2018-12-08T10:20:31.787Z,1013.51
2018-12-08T10:21:31.928Z,1013.46
2018-12-08T10:22:31.698Z,1013.51
2018-12-08T10:23:31.914Z,1013.51
2018-12-08T10:24:32.173Z,1013.5
2018-12-08T10:25:32.011Z,1013.6
2018-12-08T10:26:32.089Z,1013.56
2018-12-08T10:27:31.774Z,1013.5
2018-12-08T10:28:31.870Z,1013.53
2018-12-08T10:29:32.002Z,1013.49
2018-12-08T10:30:31.837Z,1013.53
2018-12-08T10:31:31.715Z,1013.57
2018-12-08T10:32:31.720Z,1013.44
2018-12-08T10:33:31.834Z,1013.48
2018-12-08T10:34:31.800Z,1013.46
2018-12-08T10:35:32.235Z,1013.46
2018-12-08T10:36:32.128Z,1013.52
2018-12-08T10:37:31.818Z,1013.49
2018-12-08T10:38:31.872Z,1013.41
2018-12-08T10:39:31.951Z,1013.4
2018-12-08T10:40:31.694Z,1013.38
2018-12-08T10:41:31.957Z,1013.33
2018-12-08T10:42:31.876Z,1013.26
2018-12-08T10:43:32.122Z,1013.25
2018-12-08T10:44:31.925Z,1013.21
2018-12-08T10:45:32.309Z,1013.13
2018-12-08T10:46:31.764Z,1013.15
2018-12-08T10:47:32.271Z,1013.12
2018-12-08T10:48:31.730Z,1013.14
2018-12-08T10:49:31.945Z,1013.16
2018-12-08T10:50:32.191Z,1013.19
2018-12-08T10:51:32.211Z,1013.26
2018-12-08T10:52:32.021Z,1013.34
2018-12-08T10:53:31.832Z,1013.39
2018-12-08T10:54:31.987Z,1013.36
2018-12-08T10:55:31.996Z,1013.32
2018-12-08T10:56:32.092Z,1013.32
2018-12-08T10:57:32.085Z,1013.35
2018-12-08T10:58:32.604Z,1013.41
2018-12-08T10:59:31.810Z,1013.4
2018-12-08T11:00:32.130Z,1013.36
2018-12-08T11:01:32.333Z,1013.39
2018-12-08T11:02:31.925Z,1013.33
2018-12-08T11:03:31.735Z,1013.4
2018-12-08T11:04:32.187Z,1013.27
2018-12-08T11:05:31.792Z,1013.37
2018-12-08T11:06:32.273Z,1013.32
2018-12-08T11:07:32.218Z,1013.29
2018-12-08T11:08:31.999Z,1013.13
2018-12-08T11:09:32.121Z,1013.37
2018-12-08T11:10:32.040Z,1013.3
2018-12-08T11:11:32.162Z,1013.41
2018-12-08T11:12:31.803Z,1013.43
2018-12-08T11:13:32.179Z,1013.44
2018-12-08T11:14:31.959Z,1013.45
2018-12-08T11:15:31.991Z,1013.38
2018-12-08T11:16:31.735Z,1013.39
2018-12-08T11:17:31.822Z,1013.37
2018-12-08T11:18:31.923Z,1013.29
2018-12-08T11:19:32.143Z,1013.35
2018-12-08T11:20:31.835Z,1013.37
2018-12-08T11:21:32.207Z,1013.37
2018-12-08T11:22:31.865Z,1013.43
2018-12-08T11:23:32.033Z,1013.34
2018-12-08T11:24:32.791Z,1013.4
2018-12-08T11:25:32.606Z,1013.41
2018-12-08T11:26:32.349Z,1013.44
2018-12-08T11:27:31.748Z,1013.38
2018-12-08T11:28:31.924Z,1013.36
2018-12-08T11:29:31.750Z,1013.35
2018-12-08T11:30:31.948Z,1013.4
2018-12-08T11:31:31.740Z,1013.39
2018-12-08T11:32:32.088Z,1013.37
2018-12-08T11:33:32.061Z,1013.35
2018-12-08T11:34:31.853Z,1013.46
2018-12-08T11:35:32.155Z,1013.45
2018-12-08T11:36:31.991Z,1013.32
2018-12-08T11:37:32.281Z,1013.4
2018-12-08T11:38:31.838Z,1013.38
2018-12-08T11:39:31.947Z,1013.36
2018-12-08T11:40:31.984Z,1013.38
2018-12-08T11:41:31.840Z,1013.4
2018-12-08T11:42:32.127Z,1013.31
2018-12-08T11:43:31.765Z,1013.39
2018-12-08T11:44:31.879Z,1013.46
2018-12-08T11:45:32.357Z,1013.41
2018-12-08T11:46:32.301Z,1013.37
2018-12-08T11:47:32.199Z,1013.33
2018-12-08T11:48:32.064Z,1013.38
2018-12-08T11:49:31.956Z,1013.33
2018-12-08T11:50:32.128Z,1013.3
2018-12-08T11:51:32.029Z,1013.33
2018-12-08T11:52:31.919Z,1013.31
2018-12-08T11:53:31.922Z,1013.28
2018-12-08T11:54:31.772Z,1013.25
2018-12-08T11:55:31.689Z,1013.27
2018-12-08T11:56:31.822Z,1013.28
2018-12-08T11:57:32.439Z,1013.32
2018-12-08T11:58:31.722Z,1013.24
2018-12-08T11:59:31.970Z,1013.22
2018-12-08T12:00:31.717Z,1013.2
2018-12-08T12:01:31.686Z,1013.15
2018-12-08T12:02:32.042Z,1013.11
2018-12-08T12:03:31.804Z,1013.22
2018-12-08T12:04:31.859Z,1013.16
2018-12-08T12:05:31.729Z,1013.21
2018-12-08T12:06:31.896Z,1013.21
2018-12-08T12:07:31.756Z,1013.25
2018-12-08T12:08:31.782Z,1013.27